DLH122 EDDF-EGLL
Flight info
| Callsign | DLH122 |
|---|---|
| Flight time | 1h 8m |
| Altitude | 40000 |
| Route | OBOKA5G/25C OBOKA Z29 TORNU DCT ABNED L980 LOGAN |
| Aircraft | A359/H-SDE2E3GHIJ3J4J5LM1ORWXY/LB1D1 |
Departure
| Time | 2026-05-05 12:31 |
|---|---|
| Airport | Frankfurt Main Airport (EDDF) |
Arrival
| Time | 2026-05-05 13:39 |
|---|---|
| Airport | London Heathrow Airport (EGLL) |
| Time | Latitude | Longitude | Altitude | Speed | Heading |
|---|---|---|---|---|---|
| 2026-05-05 11:40 | 50.04754 | 8.56390 | 369 ft | 0 kts | 340° |
| 2026-05-05 12:16 | 50.04736 | 8.56400 | 368 ft | 4 kts | 337° |
| 2026-05-05 12:16 | 50.04713 | 8.56416 | 368 ft | 4 kts | 332° |
| 2026-05-05 12:17 | 50.04692 | 8.56436 | 366 ft | 4 kts | 322° |
| 2026-05-05 12:17 | 50.04675 | 8.56462 | 366 ft | 4 kts | 300° |
| 2026-05-05 12:17 | 50.04666 | 8.56489 | 363 ft | 4 kts | 311° |
| 2026-05-05 12:17 | 50.04648 | 8.56505 | 369 ft | 4 kts | 8° |
| 2026-05-05 12:18 | 50.04636 | 8.56500 | 366 ft | 0 kts | 25° |
| 2026-05-05 12:18 | 50.04653 | 8.56497 | 369 ft | 4 kts | 337° |
| 2026-05-05 12:18 | 50.04666 | 8.56469 | 365 ft | 4 kts | 291° |
| 2026-05-05 12:18 | 50.04666 | 8.56432 | 364 ft | 4 kts | 261° |
| 2026-05-05 12:19 | 50.04661 | 8.56410 | 366 ft | 3 kts | 252° |
| 2026-05-05 12:19 | 50.04659 | 8.56404 | 367 ft | 0 kts | 250° |
| 2026-05-05 12:21 | 50.04658 | 8.56397 | 365 ft | 2 kts | 250° |
| 2026-05-05 12:21 | 50.04650 | 8.56359 | 368 ft | 6 kts | 253° |
| 2026-05-05 12:21 | 50.04639 | 8.56311 | 367 ft | 8 kts | 252° |
| 2026-05-05 12:21 | 50.04615 | 8.56214 | 367 ft | 11 kts | 248° |
| 2026-05-05 12:22 | 50.04586 | 8.56094 | 370 ft | 13 kts | 250° |
| 2026-05-05 12:22 | 50.04536 | 8.55971 | 367 ft | 14 kts | 215° |
| 2026-05-05 12:22 | 50.04451 | 8.55920 | 371 ft | 14 kts | 194° |
| 2026-05-05 12:22 | 50.04353 | 8.55924 | 367 ft | 12 kts | 160° |
| 2026-05-05 12:23 | 50.04340 | 8.55931 | 366 ft | 1 kts | 159° |
| 2026-05-05 12:23 | 50.04312 | 8.55948 | 365 ft | 8 kts | 160° |
| 2026-05-05 12:23 | 50.04247 | 8.55941 | 366 ft | 12 kts | 204° |
| 2026-05-05 12:23 | 50.04169 | 8.55930 | 359 ft | 0 kts | 163° |
| 2026-05-05 12:24 | 50.04167 | 8.55931 | 365 ft | 1 kts | 163° |
| 2026-05-05 12:24 | 50.04151 | 8.55940 | 367 ft | 5 kts | 161° |
| 2026-05-05 12:24 | 50.04107 | 8.55965 | 364 ft | 9 kts | 158° |
| 2026-05-05 12:24 | 50.04076 | 8.56051 | 363 ft | 11 kts | 80° |
| 2026-05-05 12:25 | 50.04102 | 8.56172 | 365 ft | 13 kts | 70° |
| 2026-05-05 12:25 | 50.04133 | 8.56300 | 360 ft | 9 kts | 69° |
| 2026-05-05 12:25 | 50.04155 | 8.56394 | 366 ft | 8 kts | 69° |
| 2026-05-05 12:25 | 50.04173 | 8.56467 | 369 ft | 8 kts | 70° |
| 2026-05-05 12:26 | 50.04182 | 8.56504 | 368 ft | 2 kts | 70° |
| 2026-05-05 12:26 | 50.04198 | 8.56571 | 368 ft | 9 kts | 70° |
| 2026-05-05 12:26 | 50.04210 | 8.56625 | 367 ft | 0 kts | 70° |
| 2026-05-05 12:27 | 50.04211 | 8.56627 | 367 ft | 2 kts | 70° |
| 2026-05-05 12:27 | 50.04227 | 8.56698 | 369 ft | 9 kts | 70° |
| 2026-05-05 12:27 | 50.04230 | 8.56710 | 367 ft | 0 kts | 70° |
| 2026-05-05 12:28 | 50.04236 | 8.56733 | 367 ft | 7 kts | 70° |
| 2026-05-05 12:28 | 50.04256 | 8.56820 | 371 ft | 12 kts | 69° |
| 2026-05-05 12:28 | 50.04308 | 8.57034 | 370 ft | 30 kts | 69° |
| 2026-05-05 12:28 | 50.04384 | 8.57355 | 375 ft | 34 kts | 69° |
| 2026-05-05 12:29 | 50.04468 | 8.57706 | 376 ft | 35 kts | 70° |
| 2026-05-05 12:29 | 50.04548 | 8.58044 | 373 ft | 30 kts | 70° |
| 2026-05-05 12:29 | 50.04622 | 8.58355 | 376 ft | 30 kts | 70° |
| 2026-05-05 12:29 | 50.04634 | 8.58551 | 376 ft | 15 kts | 134° |
| 2026-05-05 12:30 | 50.04538 | 8.58609 | 377 ft | 15 kts | 173° |
| 2026-05-05 12:30 | 50.04472 | 8.58519 | 376 ft | 2 kts | 247° |
| 2026-05-05 12:30 | 50.04472 | 8.58518 | 376 ft | 0 kts | 247° |
| 2026-05-05 12:30 | 50.04441 | 8.58398 | 376 ft | 46 kts | 249° |
| 2026-05-05 12:31 | 50.04224 | 8.57492 | 375 ft | 129 kts | 249° |
| 2026-05-05 12:31 | 50.03833 | 8.55893 | 514 ft | 183 kts | 248° |
| 2026-05-05 12:31 | 50.03336 | 8.53956 | 1173 ft | 199 kts | 248° |
| 2026-05-05 12:31 | 50.02800 | 8.51919 | 2082 ft | 210 kts | 249° |
| 2026-05-05 12:32 | 50.02504 | 8.49668 | 3055 ft | 217 kts | 269° |
| 2026-05-05 12:32 | 50.02662 | 8.47290 | 3993 ft | 224 kts | 278° |
| 2026-05-05 12:32 | 50.02882 | 8.44862 | 4962 ft | 229 kts | 271° |
| 2026-05-05 12:32 | 50.02774 | 8.42327 | 5753 ft | 246 kts | 260° |
| 2026-05-05 12:33 | 50.02482 | 8.39641 | 6500 ft | 261 kts | 259° |
| 2026-05-05 12:33 | 50.02147 | 8.36792 | 7518 ft | 268 kts | 258° |
| 2026-05-05 12:33 | 50.01801 | 8.33906 | 8597 ft | 274 kts | 258° |
| 2026-05-05 12:33 | 50.01452 | 8.30958 | 9732 ft | 280 kts | 258° |
| 2026-05-05 12:34 | 50.01414 | 8.27935 | 10787 ft | 290 kts | 278° |
| 2026-05-05 12:34 | 50.02052 | 8.24847 | 11544 ft | 314 kts | 292° |
| 2026-05-05 12:34 | 50.03003 | 8.21638 | 12265 ft | 336 kts | 294° |
| 2026-05-05 12:34 | 50.04011 | 8.18308 | 13187 ft | 345 kts | 294° |
| 2026-05-05 12:35 | 50.05036 | 8.14885 | 14158 ft | 352 kts | 293° |
| 2026-05-05 12:35 | 50.06220 | 8.11512 | 15056 ft | 360 kts | 303° |
| 2026-05-05 12:35 | 50.07744 | 8.08386 | 15935 ft | 366 kts | 307° |
| 2026-05-05 12:35 | 50.09364 | 8.05284 | 16826 ft | 372 kts | 308° |
| 2026-05-05 12:36 | 50.11015 | 8.02123 | 17720 ft | 378 kts | 307° |
| 2026-05-05 12:36 | 50.12681 | 7.98911 | 18588 ft | 383 kts | 307° |
| 2026-05-05 12:36 | 50.14362 | 7.95652 | 19389 ft | 388 kts | 307° |
| 2026-05-05 12:36 | 50.16060 | 7.92351 | 20270 ft | 392 kts | 307° |
| 2026-05-05 12:37 | 50.17754 | 7.89050 | 21112 ft | 396 kts | 307° |
| 2026-05-05 12:37 | 50.19487 | 7.85665 | 21927 ft | 402 kts | 307° |
| 2026-05-05 12:37 | 50.21243 | 7.82232 | 22747 ft | 407 kts | 307° |
| 2026-05-05 12:37 | 50.23025 | 7.78743 | 23534 ft | 413 kts | 307° |
| 2026-05-05 12:38 | 50.24939 | 7.75367 | 24210 ft | 419 kts | 315° |
| 2026-05-05 12:38 | 50.27325 | 7.72674 | 24921 ft | 427 kts | 330° |
| 2026-05-05 12:38 | 50.30036 | 7.70665 | 25562 ft | 434 kts | 335° |
| 2026-05-05 12:38 | 50.32823 | 7.68782 | 26198 ft | 439 kts | 335° |
| 2026-05-05 12:39 | 50.35646 | 7.66877 | 26847 ft | 444 kts | 334° |
| 2026-05-05 12:39 | 50.38495 | 7.64945 | 27488 ft | 449 kts | 334° |
| 2026-05-05 12:39 | 50.41374 | 7.62978 | 28167 ft | 452 kts | 334° |
| 2026-05-05 12:39 | 50.44269 | 7.60990 | 28901 ft | 455 kts | 333° |
| 2026-05-05 12:40 | 50.47182 | 7.58984 | 29501 ft | 460 kts | 333° |
| 2026-05-05 12:40 | 50.50127 | 7.56953 | 30075 ft | 464 kts | 333° |
| 2026-05-05 12:40 | 50.53096 | 7.54902 | 30553 ft | 469 kts | 333° |
| 2026-05-05 12:40 | 50.56045 | 7.52663 | 31004 ft | 470 kts | 326° |
| 2026-05-05 12:41 | 50.58830 | 7.49967 | 31495 ft | 472 kts | 323° |
| 2026-05-05 12:41 | 50.61595 | 7.47142 | 31974 ft | 475 kts | 322° |
| 2026-05-05 12:41 | 50.64386 | 7.44275 | 32463 ft | 479 kts | 322° |
| 2026-05-05 12:41 | 50.67174 | 7.41412 | 33087 ft | 479 kts | 322° |
| 2026-05-05 12:42 | 50.69967 | 7.38533 | 33566 ft | 481 kts | 322° |
| 2026-05-05 12:42 | 50.72626 | 7.35329 | 33919 ft | 480 kts | 313° |
| 2026-05-05 12:42 | 50.74894 | 7.31504 | 34268 ft | 475 kts | 303° |
| 2026-05-05 12:42 | 50.76699 | 7.27168 | 34635 ft | 471 kts | 295° |
| 2026-05-05 12:43 | 50.78282 | 7.22638 | 34961 ft | 472 kts | 293° |
| 2026-05-05 12:43 | 50.79800 | 7.18041 | 35394 ft | 471 kts | 292° |
| 2026-05-05 12:43 | 50.81288 | 7.13412 | 35846 ft | 471 kts | 292° |
| 2026-05-05 12:43 | 50.82761 | 7.08789 | 36255 ft | 471 kts | 292° |
| 2026-05-05 12:44 | 50.84218 | 7.04213 | 36667 ft | 472 kts | 292° |
| 2026-05-05 12:44 | 50.85706 | 6.99556 | 36994 ft | 474 kts | 292° |
| 2026-05-05 12:44 | 50.87196 | 6.94906 | 37398 ft | 474 kts | 293° |
| 2026-05-05 12:44 | 50.88694 | 6.90250 | 37899 ft | 474 kts | 293° |
| 2026-05-05 12:45 | 50.90193 | 6.85585 | 38317 ft | 474 kts | 293° |
| 2026-05-05 12:45 | 50.91684 | 6.80939 | 38668 ft | 474 kts | 293° |
| 2026-05-05 12:45 | 50.93177 | 6.76274 | 38948 ft | 474 kts | 293° |
| 2026-05-05 12:45 | 50.94668 | 6.71606 | 39246 ft | 473 kts | 293° |
| 2026-05-05 12:46 | 50.96135 | 6.67005 | 39532 ft | 473 kts | 293° |
| 2026-05-05 12:46 | 50.97618 | 6.62345 | 39787 ft | 474 kts | 293° |
| 2026-05-05 12:46 | 51.00608 | 6.52907 | 39886 ft | 481 kts | 293° |
| 2026-05-05 12:47 | 51.03599 | 6.43381 | 39871 ft | 482 kts | 293° |
| 2026-05-05 12:47 | 51.06594 | 6.33836 | 39871 ft | 482 kts | 294° |
| 2026-05-05 12:48 | 51.09605 | 6.24312 | 39888 ft | 482 kts | 294° |
| 2026-05-05 12:48 | 51.12607 | 6.14756 | 39879 ft | 482 kts | 294° |
| 2026-05-05 12:49 | 51.14900 | 6.04787 | 39882 ft | 478 kts | 283° |
| 2026-05-05 12:49 | 51.16629 | 5.94570 | 39884 ft | 478 kts | 282° |
| 2026-05-05 12:50 | 51.18333 | 5.84339 | 39886 ft | 479 kts | 285° |
| 2026-05-05 12:50 | 51.20731 | 5.74482 | 39884 ft | 479 kts | 290° |
| 2026-05-05 12:51 | 51.23302 | 5.64671 | 39891 ft | 479 kts | 291° |
| 2026-05-05 12:51 | 51.25899 | 5.54859 | 39892 ft | 479 kts | 290° |
| 2026-05-05 12:52 | 51.28464 | 5.45094 | 39897 ft | 479 kts | 290° |
| 2026-05-05 12:52 | 51.31025 | 5.35266 | 39896 ft | 479 kts | 290° |
| 2026-05-05 12:53 | 51.33575 | 5.25422 | 39916 ft | 479 kts | 290° |
| 2026-05-05 12:53 | 51.36117 | 5.15567 | 39910 ft | 479 kts | 290° |
| 2026-05-05 12:54 | 51.39910 | 5.00757 | 39912 ft | 479 kts | 290° |
| 2026-05-05 12:55 | 51.42439 | 4.90870 | 39914 ft | 479 kts | 290° |
| 2026-05-05 12:55 | 51.44939 | 4.81045 | 39915 ft | 479 kts | 290° |
| 2026-05-05 12:56 | 51.47449 | 4.71125 | 39908 ft | 480 kts | 290° |
| 2026-05-05 12:56 | 51.49949 | 4.61200 | 39909 ft | 479 kts | 290° |
| 2026-05-05 12:57 | 51.52444 | 4.51251 | 39910 ft | 479 kts | 290° |
| 2026-05-05 12:57 | 51.54923 | 4.41320 | 39919 ft | 479 kts | 290° |
| 2026-05-05 12:58 | 51.57393 | 4.31383 | 39910 ft | 479 kts | 290° |
| 2026-05-05 12:58 | 51.59842 | 4.21486 | 39906 ft | 479 kts | 290° |
| 2026-05-05 12:59 | 51.62298 | 4.11516 | 39905 ft | 479 kts | 290° |
| 2026-05-05 12:59 | 51.64743 | 4.01542 | 39925 ft | 479 kts | 290° |
| 2026-05-05 13:00 | 51.68402 | 3.86535 | 39947 ft | 479 kts | 290° |
| 2026-05-05 13:01 | 51.73233 | 3.66560 | 39944 ft | 480 kts | 290° |
| 2026-05-05 13:01 | 51.75646 | 3.56517 | 39667 ft | 478 kts | 290° |
| 2026-05-05 13:02 | 51.76850 | 3.51489 | 39432 ft | 478 kts | 290° |
| 2026-05-05 13:02 | 51.78028 | 3.46558 | 39212 ft | 478 kts | 289° |
| 2026-05-05 13:02 | 51.79224 | 3.41539 | 38987 ft | 478 kts | 289° |
| 2026-05-05 13:02 | 51.80415 | 3.36530 | 38778 ft | 477 kts | 289° |
| 2026-05-05 13:03 | 51.81605 | 3.31514 | 38541 ft | 477 kts | 289° |
| 2026-05-05 13:03 | 51.82787 | 3.26522 | 38261 ft | 476 kts | 289° |
| 2026-05-05 13:03 | 51.83810 | 3.21430 | 37974 ft | 475 kts | 283° |
| 2026-05-05 13:03 | 51.84400 | 3.16186 | 37689 ft | 473 kts | 274° |
| 2026-05-05 13:04 | 51.84497 | 3.10882 | 37428 ft | 471 kts | 265° |
| 2026-05-05 13:04 | 51.84280 | 3.05611 | 37168 ft | 470 kts | 264° |
| 2026-05-05 13:04 | 51.83976 | 3.00404 | 36896 ft | 470 kts | 263° |
| 2026-05-05 13:04 | 51.83624 | 2.95142 | 36629 ft | 469 kts | 262° |
| 2026-05-05 13:05 | 51.83256 | 2.89890 | 36379 ft | 469 kts | 262° |
| 2026-05-05 13:05 | 51.82886 | 2.84644 | 36117 ft | 469 kts | 262° |
| 2026-05-05 13:05 | 51.82521 | 2.79401 | 35864 ft | 469 kts | 262° |
| 2026-05-05 13:05 | 51.82160 | 2.74159 | 35616 ft | 468 kts | 262° |
| 2026-05-05 13:06 | 51.81923 | 2.70694 | 35459 ft | 468 kts | 262° |
| 2026-05-05 13:06 | 51.81452 | 2.63769 | 35127 ft | 467 kts | 262° |
| 2026-05-05 13:06 | 51.81097 | 2.58547 | 34877 ft | 467 kts | 262° |
| 2026-05-05 13:06 | 51.80736 | 2.53332 | 34641 ft | 466 kts | 262° |
| 2026-05-05 13:07 | 51.80370 | 2.48119 | 34409 ft | 466 kts | 262° |
| 2026-05-05 13:07 | 51.80127 | 2.44677 | 34253 ft | 465 kts | 262° |
| 2026-05-05 13:07 | 51.79757 | 2.39464 | 34033 ft | 464 kts | 262° |
| 2026-05-05 13:07 | 51.79394 | 2.34363 | 33756 ft | 451 kts | 262° |
| 2026-05-05 13:08 | 51.79038 | 2.29375 | 33175 ft | 444 kts | 262° |
| 2026-05-05 13:08 | 51.78685 | 2.24457 | 32688 ft | 437 kts | 262° |
| 2026-05-05 13:08 | 51.78348 | 2.19682 | 32188 ft | 417 kts | 262° |
| 2026-05-05 13:08 | 51.78068 | 2.15085 | 31457 ft | 403 kts | 263° |
| 2026-05-05 13:09 | 51.77809 | 2.10656 | 30861 ft | 388 kts | 263° |
| 2026-05-05 13:09 | 51.77557 | 2.06367 | 30248 ft | 381 kts | 262° |
| 2026-05-05 13:09 | 51.77302 | 2.02104 | 29686 ft | 381 kts | 262° |
| 2026-05-05 13:09 | 51.77047 | 1.97848 | 29173 ft | 380 kts | 262° |
| 2026-05-05 13:10 | 51.76792 | 1.93617 | 28696 ft | 378 kts | 262° |
| 2026-05-05 13:10 | 51.76538 | 1.89414 | 28187 ft | 375 kts | 262° |
| 2026-05-05 13:10 | 51.76285 | 1.85288 | 27723 ft | 373 kts | 262° |
| 2026-05-05 13:10 | 51.76029 | 1.81123 | 27397 ft | 370 kts | 262° |
| 2026-05-05 13:11 | 51.75780 | 1.77044 | 26855 ft | 361 kts | 262° |
| 2026-05-05 13:11 | 51.75530 | 1.72999 | 26317 ft | 356 kts | 262° |
| 2026-05-05 13:11 | 51.75285 | 1.69070 | 25859 ft | 356 kts | 262° |
| 2026-05-05 13:11 | 51.75037 | 1.65107 | 25395 ft | 355 kts | 262° |
| 2026-05-05 13:12 | 51.74788 | 1.61154 | 24932 ft | 354 kts | 262° |
| 2026-05-05 13:12 | 51.74541 | 1.57193 | 24452 ft | 354 kts | 262° |
| 2026-05-05 13:12 | 51.74289 | 1.53244 | 23935 ft | 353 kts | 262° |
| 2026-05-05 13:12 | 51.74035 | 1.49317 | 23339 ft | 351 kts | 262° |
| 2026-05-05 13:13 | 51.73782 | 1.45411 | 22765 ft | 347 kts | 263° |
| 2026-05-05 13:13 | 51.73533 | 1.41577 | 22247 ft | 341 kts | 262° |
| 2026-05-05 13:13 | 51.73285 | 1.37776 | 21732 ft | 337 kts | 263° |
| 2026-05-05 13:13 | 51.73040 | 1.34026 | 21239 ft | 335 kts | 263° |
| 2026-05-05 13:14 | 51.72795 | 1.30304 | 20814 ft | 329 kts | 263° |
| 2026-05-05 13:14 | 51.72558 | 1.26728 | 20482 ft | 315 kts | 263° |
| 2026-05-05 13:14 | 51.72325 | 1.23229 | 19874 ft | 312 kts | 263° |
| 2026-05-05 13:14 | 51.72092 | 1.19758 | 19338 ft | 311 kts | 264° |
| 2026-05-05 13:15 | 51.71860 | 1.16291 | 18872 ft | 311 kts | 263° |
| 2026-05-05 13:15 | 51.71628 | 1.12838 | 18404 ft | 309 kts | 264° |
| 2026-05-05 13:15 | 51.71402 | 1.09437 | 17908 ft | 308 kts | 264° |
| 2026-05-05 13:15 | 51.71172 | 1.05963 | 17495 ft | 315 kts | 265° |
| 2026-05-05 13:16 | 51.70941 | 1.02434 | 17118 ft | 317 kts | 265° |
| 2026-05-05 13:16 | 51.70707 | 0.98911 | 16633 ft | 316 kts | 264° |
| 2026-05-05 13:16 | 51.70469 | 0.95395 | 16139 ft | 315 kts | 265° |
| 2026-05-05 13:16 | 51.70228 | 0.91889 | 15718 ft | 313 kts | 264° |
| 2026-05-05 13:17 | 51.69978 | 0.88415 | 15266 ft | 312 kts | 264° |
| 2026-05-05 13:17 | 51.69729 | 0.84958 | 14851 ft | 309 kts | 264° |
| 2026-05-05 13:17 | 51.69484 | 0.81530 | 14464 ft | 307 kts | 264° |
| 2026-05-05 13:17 | 51.69243 | 0.78132 | 14074 ft | 304 kts | 264° |
| 2026-05-05 13:18 | 51.69004 | 0.74768 | 13689 ft | 301 kts | 264° |
| 2026-05-05 13:18 | 51.68767 | 0.71434 | 13298 ft | 298 kts | 264° |
| 2026-05-05 13:18 | 51.68531 | 0.68126 | 12930 ft | 296 kts | 264° |
| 2026-05-05 13:18 | 51.68301 | 0.64845 | 12566 ft | 294 kts | 265° |
| 2026-05-05 13:19 | 51.68066 | 0.61577 | 12185 ft | 292 kts | 264° |
| 2026-05-05 13:19 | 51.67831 | 0.58341 | 11840 ft | 290 kts | 264° |
| 2026-05-05 13:19 | 51.67601 | 0.55174 | 11621 ft | 288 kts | 264° |
| 2026-05-05 13:19 | 51.67367 | 0.51965 | 11364 ft | 286 kts | 264° |
| 2026-05-05 13:20 | 51.67136 | 0.48784 | 11009 ft | 284 kts | 264° |
| 2026-05-05 13:20 | 51.66911 | 0.45678 | 10718 ft | 272 kts | 264° |
| 2026-05-05 13:20 | 51.66691 | 0.42707 | 10246 ft | 264 kts | 264° |
| 2026-05-05 13:20 | 51.66474 | 0.39810 | 9796 ft | 257 kts | 264° |
| 2026-05-05 13:21 | 51.66263 | 0.36976 | 9417 ft | 255 kts | 264° |
| 2026-05-05 13:21 | 51.66052 | 0.34132 | 9096 ft | 255 kts | 264° |
| 2026-05-05 13:21 | 51.65841 | 0.31309 | 8774 ft | 252 kts | 264° |
| 2026-05-05 13:21 | 51.65630 | 0.28515 | 8460 ft | 251 kts | 265° |
| 2026-05-05 13:22 | 51.65422 | 0.25728 | 8151 ft | 250 kts | 264° |
| 2026-05-05 13:22 | 51.65214 | 0.22944 | 7833 ft | 249 kts | 264° |
| 2026-05-05 13:22 | 51.65008 | 0.20217 | 7598 ft | 249 kts | 265° |
| 2026-05-05 13:22 | 51.64799 | 0.17443 | 7367 ft | 249 kts | 265° |
| 2026-05-05 13:23 | 51.64592 | 0.14686 | 7120 ft | 247 kts | 264° |
| 2026-05-05 13:23 | 51.64422 | 0.11941 | 7011 ft | 247 kts | 266° |
| 2026-05-05 13:23 | 51.64272 | 0.09183 | 6988 ft | 246 kts | 265° |
| 2026-05-05 13:23 | 51.64126 | 0.06445 | 6987 ft | 246 kts | 266° |
| 2026-05-05 13:24 | 51.63978 | 0.03691 | 6983 ft | 246 kts | 265° |
| 2026-05-05 13:24 | 51.63823 | 0.00949 | 6983 ft | 246 kts | 266° |
| 2026-05-05 13:24 | 51.63669 | -0.01802 | 7002 ft | 246 kts | 265° |
| 2026-05-05 13:24 | 51.63514 | -0.04540 | 7003 ft | 246 kts | 265° |
| 2026-05-05 13:25 | 51.63359 | -0.07284 | 7003 ft | 246 kts | 266° |
| 2026-05-05 13:25 | 51.63214 | -0.09998 | 7005 ft | 246 kts | 266° |
| 2026-05-05 13:25 | 51.63067 | -0.12738 | 7005 ft | 245 kts | 266° |
| 2026-05-05 13:25 | 51.62915 | -0.15467 | 7010 ft | 246 kts | 266° |
| 2026-05-05 13:26 | 51.62760 | -0.18220 | 7012 ft | 245 kts | 266° |
| 2026-05-05 13:26 | 51.62605 | -0.20952 | 7012 ft | 245 kts | 266° |
| 2026-05-05 13:26 | 51.62448 | -0.23677 | 7014 ft | 245 kts | 266° |
| 2026-05-05 13:26 | 51.62289 | -0.26436 | 7013 ft | 244 kts | 266° |
| 2026-05-05 13:27 | 51.62135 | -0.29071 | 6996 ft | 229 kts | 266° |
| 2026-05-05 13:27 | 51.61987 | -0.31543 | 6972 ft | 214 kts | 266° |
| 2026-05-05 13:27 | 51.61852 | -0.33821 | 6929 ft | 200 kts | 266° |
| 2026-05-05 13:27 | 51.61721 | -0.36020 | 6916 ft | 196 kts | 266° |
| 2026-05-05 13:28 | 51.61593 | -0.38206 | 6921 ft | 196 kts | 266° |
| 2026-05-05 13:28 | 51.61463 | -0.40416 | 6946 ft | 208 kts | 266° |
| 2026-05-05 13:28 | 51.61318 | -0.42945 | 6976 ft | 239 kts | 266° |
| 2026-05-05 13:28 | 51.61160 | -0.45653 | 6983 ft | 245 kts | 266° |
| 2026-05-05 13:29 | 51.60997 | -0.48383 | 6983 ft | 245 kts | 265° |
| 2026-05-05 13:29 | 51.60832 | -0.51113 | 6980 ft | 245 kts | 266° |
| 2026-05-05 13:29 | 51.60666 | -0.53850 | 6985 ft | 246 kts | 265° |
| 2026-05-05 13:29 | 51.60499 | -0.56573 | 6981 ft | 246 kts | 265° |
| 2026-05-05 13:30 | 51.60335 | -0.59239 | 6971 ft | 234 kts | 266° |
| 2026-05-05 13:30 | 51.60179 | -0.61783 | 6961 ft | 226 kts | 265° |
| 2026-05-05 13:30 | 51.60020 | -0.64290 | 6964 ft | 224 kts | 266° |
| 2026-05-05 13:30 | 51.59873 | -0.66779 | 6921 ft | 219 kts | 266° |
| 2026-05-05 13:31 | 51.59726 | -0.69160 | 6831 ft | 207 kts | 266° |
| 2026-05-05 13:31 | 51.59580 | -0.71410 | 6638 ft | 199 kts | 264° |
| 2026-05-05 13:31 | 51.59233 | -0.73554 | 6347 ft | 199 kts | 246° |
| 2026-05-05 13:31 | 51.58427 | -0.75336 | 5989 ft | 197 kts | 222° |
| 2026-05-05 13:32 | 51.57270 | -0.76439 | 5594 ft | 196 kts | 200° |
| 2026-05-05 13:32 | 51.55969 | -0.77121 | 5157 ft | 200 kts | 195° |
| 2026-05-05 13:32 | 51.54611 | -0.77752 | 4761 ft | 204 kts | 194° |
| 2026-05-05 13:32 | 51.53247 | -0.78385 | 4347 ft | 204 kts | 195° |
| 2026-05-05 13:33 | 51.51847 | -0.78720 | 3845 ft | 203 kts | 176° |
| 2026-05-05 13:33 | 51.50511 | -0.78291 | 3498 ft | 187 kts | 154° |
| 2026-05-05 13:33 | 51.49440 | -0.77321 | 3247 ft | 169 kts | 141° |
| 2026-05-05 13:33 | 51.48495 | -0.76211 | 3185 ft | 167 kts | 137° |
| 2026-05-05 13:34 | 51.47853 | -0.74731 | 3141 ft | 159 kts | 105° |
| 2026-05-05 13:34 | 51.47695 | -0.73097 | 3100 ft | 142 kts | 87° |
| 2026-05-05 13:34 | 51.47690 | -0.71559 | 2969 ft | 135 kts | 87° |
| 2026-05-05 13:34 | 51.47676 | -0.70065 | 2784 ft | 133 kts | 86° |
| 2026-05-05 13:35 | 51.47681 | -0.68592 | 2593 ft | 132 kts | 86° |
| 2026-05-05 13:35 | 51.47684 | -0.67124 | 2418 ft | 131 kts | 85° |
| 2026-05-05 13:35 | 51.47688 | -0.65679 | 2229 ft | 129 kts | 85° |
| 2026-05-05 13:35 | 51.47692 | -0.64232 | 2067 ft | 129 kts | 84° |
| 2026-05-05 13:36 | 51.47697 | -0.62818 | 1886 ft | 126 kts | 86° |
| 2026-05-05 13:36 | 51.47704 | -0.61419 | 1737 ft | 125 kts | 85° |
| 2026-05-05 13:36 | 51.47710 | -0.60033 | 1550 ft | 125 kts | 85° |
| 2026-05-05 13:36 | 51.47727 | -0.58639 | 1352 ft | 124 kts | 85° |
| 2026-05-05 13:37 | 51.47709 | -0.57269 | 1187 ft | 123 kts | 87° |
| 2026-05-05 13:37 | 51.47697 | -0.55879 | 1110 ft | 124 kts | 88° |
| 2026-05-05 13:37 | 51.47725 | -0.54507 | 946 ft | 124 kts | 87° |
| 2026-05-05 13:37 | 51.47745 | -0.53120 | 712 ft | 124 kts | 87° |
| 2026-05-05 13:38 | 51.47752 | -0.51755 | 488 ft | 120 kts | 89° |
| 2026-05-05 13:38 | 51.47741 | -0.50410 | 310 ft | 121 kts | 88° |
| 2026-05-05 13:38 | 51.47754 | -0.49071 | 179 ft | 121 kts | 86° |
| 2026-05-05 13:38 | 51.47757 | -0.47726 | 95 ft | 117 kts | 89° |
| 2026-05-05 13:39 | 51.47758 | -0.46580 | 99 ft | 89 kts | 91° |
| 2026-05-05 13:39 | 51.47761 | -0.45754 | 93 ft | 64 kts | 89° |
| 2026-05-05 13:39 | 51.47762 | -0.45388 | 96 ft | 46 kts | 89° |
| 2026-05-05 13:39 | 51.47688 | -0.45153 | 97 ft | 0 kts | 181° |
| 2026-05-05 13:40 | 51.47676 | -0.45155 | 97 ft | 7 kts | 187° |
| 2026-05-05 13:40 | 51.47657 | -0.45160 | 95 ft | 0 kts | 187° |
| 2026-05-05 13:41 | 51.47642 | -0.45163 | 95 ft | 5 kts | 188° |
| 2026-05-05 13:41 | 51.47607 | -0.45203 | 95 ft | 7 kts | 244° |
| 2026-05-05 13:41 | 51.47597 | -0.45325 | 92 ft | 16 kts | 267° |
| 2026-05-05 13:41 | 51.47594 | -0.45554 | 96 ft | 24 kts | 269° |
| 2026-05-05 13:42 | 51.47597 | -0.45841 | 96 ft | 27 kts | 270° |
| 2026-05-05 13:42 | 51.47541 | -0.46120 | 97 ft | 28 kts | 231° |
| 2026-05-05 13:42 | 51.47517 | -0.46422 | 92 ft | 29 kts | 270° |
| 2026-05-05 13:42 | 51.47507 | -0.46737 | 95 ft | 11 kts | 241° |
| 2026-05-05 13:43 | 51.47489 | -0.46754 | 97 ft | 12 kts | 202° |
| 2026-05-05 13:43 | 51.47344 | -0.46728 | 94 ft | 24 kts | 178° |
| 2026-05-05 13:43 | 51.47232 | -0.46663 | 97 ft | 6 kts | 105° |
| 2026-05-05 13:43 | 51.47234 | -0.46576 | 96 ft | 10 kts | 86° |
| 2026-05-05 13:44 | 51.47227 | -0.46439 | 96 ft | 14 kts | 115° |
| 2026-05-05 13:44 | 51.47143 | -0.46319 | 97 ft | 19 kts | 146° |
| 2026-05-05 13:44 | 51.47099 | -0.46276 | 96 ft | 1 kts | 163° |
| 2026-05-05 13:44 | 51.47055 | -0.46271 | 96 ft | 10 kts | 193° |
| 2026-05-05 13:45 | 51.47051 | -0.46275 | 96 ft | 0 kts | 205° |
| 2026-05-05 13:45 | 51.47047 | -0.46279 | 97 ft | 0 kts | 210° |
| 2026-05-05 13:45 | 51.47047 | -0.46278 | 97 ft | 0 kts | 210° |
| 2026-05-05 13:45 | 51.47047 | -0.46279 | 97 ft | 0 kts | 210° |